Pilote(s) en ligne...
 F-JMJM (Jean-Manuel)  
 F-GMAN (Gilles)  

Compagnie Fsx-France ! Un nouveau look pour votre VA, par : Julien & Co

 METAR ET TAF INFORMATION
METAR FOR OIZH :
OIZH 041830Z 13016KT CAVOK 08/M03 Q1017 A3005

 AÉROPORT DE AÉROPORT

 INFORMATIONS DE PISTE
Piste 17 Longueur de la piste 4265 m = 13993 ft Largeur de la piste 45 m = 148 ft
Élévation de la piste 4536 ft Seuil de la piste déplacés 0 ft Runway heading 173
Piste 35 Longueur de la piste 4265 m = 13993 ft Largeur de la piste 45 m = 148 ft
Élévation de la piste 4564 ft Seuil de la piste déplacés 886 ft Runway heading 353
Piste 17L Longueur de la piste 4252 m = 13949 ft Largeur de la piste 30 m = 98 ft
Élévation de la piste 4475 ft Seuil de la piste déplacés 0 ft Runway heading 173
Piste 35R Longueur de la piste 4252 m = 13949 ft Largeur de la piste 30 m = 98 ft
Élévation de la piste 4517 ft Seuil de la piste déplacés 0 ft Runway heading 353
 AÉROPORT FRÉQUENCES
Type ATIS Nom ATIS Féquence 128.45 MHZ
Type TWR Nom TWR Féquence 118.1 MHZ

 AIDES A LA NAVIGATION
Type TACAN Nom Zahedan Féquence 112900 KHZ
Type NDB Nom Zahedan Féquence 224 KHZ
Type VOR-DME Nom Zahedan Féquence 116000 KHZ